Time;durP1;ratioP1;P1;durP2;ratioP2;P2;SDS_P1;SDS_P2;PMS_P1;PMS_P2;Temp;Humidity;BMP_temperature;BMP_pressure;BME280_temperature;BME280_humidity;BME280_pressure;Samples;Min_cycle;Max_cycle;Signal;HPM_P1;HPM_P2
2024/01/01 00:00:08;;;;;;;7.83;5.30;;;;;;;;;;6386122;27;20594;-71
2024/01/01 00:03:17;;;;;;;4.97;4.60;;;;;;;;;;6386254;27;20282;-71
2024/01/01 00:06:21;;;;;;;4.07;3.87;;;;;;;;;;6384850;27;20299;-70
2024/01/01 00:09:25;;;;;;;4.20;3.90;;;;;;;;;;6367295;27;20297;-70
2024/01/01 00:12:29;;;;;;;3.77;3.57;;;;;;;;;;6386253;27;20296;-70
2024/01/01 00:15:33;;;;;;;4.30;4.00;;;;;;;;;;6385962;27;20408;-69
2024/01/01 00:18:38;;;;;;;3.60;3.40;;;;;;;;;;6383322;27;20586;-71
2024/01/01 00:21:42;;;;;;;4.93;3.67;;;;;;;;;;6386294;27;20301;-70
2024/01/01 00:24:46;;;;;;;4.63;4.27;;;;;;;;;;6385418;27;20291;-70
2024/01/01 00:27:50;;;;;;;4.00;3.63;;;;;;;;;;6385344;27;20303;-70
2024/01/01 00:30:54;;;;;;;3.90;3.70;;;;;;;;;;6386097;27;20313;-69
2024/01/01 00:33:59;;;;;;;4.17;3.60;;;;;;;;;;6385623;27;20284;-70
2024/01/01 00:37:03;;;;;;;3.70;3.60;;;;;;;;;;6384453;27;20323;-70
2024/01/01 00:40:08;;;;;;;4.20;3.90;;;;;;;;;;6383692;27;20316;-69
2024/01/01 00:43:12;;;;;;;4.20;3.80;;;;;;;;;;6385082;27;20472;-70
2024/01/01 00:46:16;;;;;;;4.50;3.23;;;;;;;;;;6385212;27;20299;-71
2024/01/01 00:49:22;;;;;;;3.30;3.13;;;;;;;;;;6371694;27;20314;-70
2024/01/01 00:52:26;;;;;;;3.10;3.00;;;;;;;;;;6379905;27;20306;-70
2024/01/01 00:55:31;;;;;;;3.13;2.93;;;;;;;;;;6384776;27;20326;-69
2024/01/01 00:58:36;;;;;;;3.43;3.17;;;;;;;;;;6384835;27;20287;-71
2024/01/01 01:01:39;;;;;;;3.07;2.97;;;;;;;;;;6385478;27;20295;-70
2024/01/01 01:04:46;;;;;;;3.07;2.97;;;;;;;;;;6384978;28;20289;-70
2024/01/01 01:08:08;;;;;;;2.70;2.50;;;;;;;;;;6364839;27;20291;-70
2024/01/01 01:11:12;;;;;;;2.80;2.60;;;;;;;;;;6370330;28;20244;-70
2024/01/01 01:14:16;;;;;;;2.63;2.53;;;;;;;;;;6357670;27;20284;-70
2024/01/01 01:17:20;;;;;;;3.90;2.60;;;;;;;;;;6385580;27;20294;-70
2024/01/01 01:20:26;;;;;;;3.40;3.10;;;;;;;;;;6390552;27;20290;-70
2024/01/01 01:23:30;;;;;;;3.20;2.90;;;;;;;;;;6410270;27;20298;-70
2024/01/01 01:26:34;;;;;;;2.80;2.70;;;;;;;;;;6391840;27;20288;-70
2024/01/01 01:29:38;;;;;;;2.73;2.60;;;;;;;;;;6393436;27;20288;-70
2024/01/01 01:32:42;;;;;;;2.83;2.73;;;;;;;;;;6366082;28;20536;-70
2024/01/01 01:35:47;;;;;;;2.60;2.60;;;;;;;;;;6382695;28;20288;-70
2024/01/01 01:38:51;;;;;;;2.60;2.40;;;;;;;;;;6382870;28;20283;-70
2024/01/01 01:41:55;;;;;;;2.20;2.20;;;;;;;;;;6366336;28;20289;-70
2024/01/01 01:44:59;;;;;;;2.40;2.40;;;;;;;;;;6384657;27;20291;-70
2024/01/01 01:48:03;;;;;;;2.60;2.60;;;;;;;;;;6387366;27;20488;-70
2024/01/01 01:51:09;;;;;;;2.63;2.43;;;;;;;;;;6389479;27;20299;-70
2024/01/01 01:54:13;;;;;;;2.33;2.23;;;;;;;;;;6370771;27;20310;-70
2024/01/01 01:57:17;;;;;;;2.73;2.53;;;;;;;;;;6370504;27;20292;-69
2024/01/01 02:00:21;;;;;;;2.17;2.17;;;;;;;;;;6370439;27;20292;-70
2024/01/01 02:03:25;;;;;;;2.40;2.20;;;;;;;;;;6388627;27;20291;-70
2024/01/01 02:06:31;;;;;;;2.53;2.40;;;;;;;;;;6389438;27;20291;-70
2024/01/01 02:09:37;;;;;;;2.57;2.47;;;;;;;;;;6390396;27;20294;-70
2024/01/01 02:12:41;;;;;;;2.77;2.57;;;;;;;;;;6395975;27;20291;-70
2024/01/01 02:15:44;;;;;;;2.27;2.23;;;;;;;;;;6414304;27;20295;-70
2024/01/01 02:18:49;;;;;;;2.50;2.40;;;;;;;;;;6395271;27;20474;-70
2024/01/01 02:21:55;;;;;;;2.60;2.50;;;;;;;;;;6414014;27;20294;-70
2024/01/01 02:25:01;;;;;;;2.40;2.30;;;;;;;;;;6413895;27;20445;-70
2024/01/01 02:28:05;;;;;;;2.73;2.53;;;;;;;;;;6410278;27;20308;-70
2024/01/01 02:31:10;;;;;;;2.50;2.50;;;;;;;;;;6389034;27;20300;-70
2024/01/01 02:34:13;;;;;;;2.90;2.80;;;;;;;;;;6386346;27;20299;-68
2024/01/01 02:37:18;;;;;;;2.83;2.70;;;;;;;;;;6388385;27;20299;-68
2024/01/01 02:40:23;;;;;;;2.93;2.73;;;;;;;;;;6387901;27;20303;-68
2024/01/01 02:43:27;;;;;;;2.50;2.50;;;;;;;;;;6368756;27;20294;-68
2024/01/01 02:46:31;;;;;;;2.73;2.63;;;;;;;;;;6386629;27;20300;-69
2024/01/01 02:49:35;;;;;;;2.50;2.40;;;;;;;;;;6387846;27;20315;-69
2024/01/01 02:52:39;;;;;;;2.43;2.43;;;;;;;;;;6365915;27;20587;-69
2024/01/01 02:55:44;;;;;;;2.43;2.43;;;;;;;;;;6386577;27;20474;-70
2024/01/01 02:58:48;;;;;;;2.67;2.33;;;;;;;;;;6369048;27;20288;-69
2024/01/01 03:01:52;;;;;;;2.57;2.57;;;;;;;;;;6388131;27;20292;-69
2024/01/01 03:04:56;;;;;;;3.10;2.90;;;;;;;;;;6368676;27;20299;-69
2024/01/01 03:08:00;;;;;;;2.90;2.80;;;;;;;;;;6387021;27;20291;-69
2024/01/01 03:11:07;;;;;;;2.23;2.23;;;;;;;;;;6382583;27;20559;-69
2024/01/01 03:14:11;;;;;;;2.57;2.57;;;;;;;;;;6393778;27;20298;-69
2024/01/01 03:17:15;;;;;;;3.07;2.77;;;;;;;;;;6394465;27;20270;-69
2024/01/01 03:20:19;;;;;;;2.93;2.73;;;;;;;;;;6412975;27;20303;-68
2024/01/01 03:23:23;;;;;;;2.63;2.53;;;;;;;;;;6393393;27;20299;-69
2024/01/01 03:26:28;;;;;;;2.80;2.70;;;;;;;;;;6413322;27;20653;-69
2024/01/01 03:29:32;;;;;;;3.43;3.23;;;;;;;;;;6396682;27;20284;-70
2024/01/01 03:32:36;;;;;;;2.93;2.83;;;;;;;;;;6387375;27;20283;-69
2024/01/01 03:35:40;;;;;;;3.37;3.13;;;;;;;;;;6384547;27;20290;-69
2024/01/01 03:38:44;;;;;;;2.80;2.80;;;;;;;;;;6386563;27;20576;-68
2024/01/01 03:41:49;;;;;;;2.80;2.70;;;;;;;;;;6386624;27;20299;-69
2024/01/01 03:44:53;;;;;;;2.70;2.60;;;;;;;;;;6386643;27;20474;-69
2024/01/01 03:47:57;;;;;;;2.80;2.70;;;;;;;;;;6386265;27;20318;-69
2024/01/01 03:51:02;;;;;;;5.30;2.53;;;;;;;;;;6386730;27;20295;-69
2024/01/01 03:54:06;;;;;;;2.40;2.40;;;;;;;;;;6382268;27;20603;-69
2024/01/01 03:57:11;;;;;;;2.93;2.93;;;;;;;;;;6386802;27;20291;-69
2024/01/01 04:00:16;;;;;;;2.87;2.77;;;;;;;;;;6366992;27;20291;-69
2024/01/01 04:03:20;;;;;;;2.67;2.57;;;;;;;;;;6373495;27;20307;-69
2024/01/01 04:06:24;;;;;;;2.63;2.53;;;;;;;;;;6393771;27;20296;-70
2024/01/01 04:09:28;;;;;;;2.63;2.43;;;;;;;;;;6385734;27;20556;-70
2024/01/01 04:12:33;;;;;;;2.50;2.50;;;;;;;;;;6401646;27;20340;-69
2024/01/01 04:15:37;;;;;;;2.50;2.50;;;;;;;;;;6409630;27;20528;-69
2024/01/01 04:18:41;;;;;;;2.80;2.70;;;;;;;;;;6411514;27;20293;-68
2024/01/01 04:21:45;;;;;;;2.33;2.33;;;;;;;;;;6346012;28;20301;-69
2024/01/01 04:24:49;;;;;;;2.50;2.50;;;;;;;;;;6334163;28;20300;-68
2024/01/01 04:27:54;;;;;;;2.27;2.27;;;;;;;;;;6337639;28;20466;-68
2024/01/01 04:30:59;;;;;;;2.70;2.60;;;;;;;;;;6377512;27;20374;-68
2024/01/01 04:34:03;;;;;;;2.20;2.20;;;;;;;;;;6385888;27;20465;-69
2024/01/01 04:37:07;;;;;;;2.70;2.60;;;;;;;;;;6377712;27;20505;-70
2024/01/01 04:40:11;;;;;;;2.60;2.33;;;;;;;;;;6385458;27;20292;-70
2024/01/01 04:43:17;;;;;;;2.70;2.37;;;;;;;;;;6385841;27;20294;-70
2024/01/01 04:46:21;;;;;;;2.43;2.33;;;;;;;;;;6384944;27;20300;-70
2024/01/01 04:49:24;;;;;;;2.40;2.40;;;;;;;;;;6383835;27;20620;-70
2024/01/01 04:52:28;;;;;;;2.40;2.33;;;;;;;;;;6381746;27;20292;-70
2024/01/01 04:55:32;;;;;;;2.13;2.03;;;;;;;;;;6381855;27;20579;-70
2024/01/01 04:58:38;;;;;;;2.33;2.23;;;;;;;;;;6363263;27;20291;-70
2024/01/01 05:01:42;;;;;;;2.37;2.27;;;;;;;;;;6360155;27;20605;-70
2024/01/01 05:04:46;;;;;;;2.10;2.10;;;;;;;;;;6358982;27;20295;-69
2024/01/01 05:07:52;;;;;;;1.93;1.93;;;;;;;;;;6359992;27;20301;-70
2024/01/01 05:10:56;;;;;;;2.20;2.10;;;;;;;;;;6350623;27;20295;-70
2024/01/01 05:14:02;;;;;;;2.53;2.30;;;;;;;;;;6333679;27;20376;-70
2024/01/01 05:17:05;;;;;;;2.50;2.30;;;;;;;;;;6333809;27;20268;-70
2024/01/01 05:20:10;;;;;;;2.10;2.10;;;;;;;;;;6342108;27;20378;-70
2024/01/01 05:23:14;;;;;;;2.37;2.23;;;;;;;;;;6364504;28;20419;-70
2024/01/01 05:26:18;;;;;;;2.23;2.13;;;;;;;;;;6345297;28;20287;-70
2024/01/01 05:29:23;;;;;;;2.20;2.00;;;;;;;;;;6365577;27;20299;-70
2024/01/01 05:32:27;;;;;;;1.70;1.70;;;;;;;;;;6364646;28;20290;-70
2024/01/01 05:35:32;;;;;;;1.93;1.93;;;;;;;;;;6364025;28;20292;-70
2024/01/01 05:38:36;;;;;;;1.90;1.90;;;;;;;;;;6363801;28;20286;-68
2024/01/01 05:41:40;;;;;;;2.10;1.70;;;;;;;;;;6385000;27;20286;-69
2024/01/01 05:44:46;;;;;;;3.73;2.07;;;;;;;;;;6389159;27;20288;-69
2024/01/01 05:47:50;;;;;;;1.83;1.83;;;;;;;;;;6389867;27;20311;-69
2024/01/01 05:50:58;;;;;;;1.90;1.90;;;;;;;;;;6389258;27;20286;-69
2024/01/01 05:54:02;;;;;;;1.87;1.87;;;;;;;;;;6389014;27;20291;-69
2024/01/01 05:57:07;;;;;;;1.70;1.70;;;;;;;;;;6389793;27;20302;-68
2024/01/01 06:00:14;;;;;;;2.33;2.23;;;;;;;;;;6389279;27;20372;-69
2024/01/01 06:03:17;;;;;;;1.97;1.90;;;;;;;;;;6389653;27;20296;-69
2024/01/01 06:06:24;;;;;;;2.47;2.37;;;;;;;;;;6388650;27;20292;-69
2024/01/01 06:09:28;;;;;;;1.80;1.80;;;;;;;;;;6388845;27;20482;-69
2024/01/01 06:12:32;;;;;;;2.00;1.90;;;;;;;;;;6389428;27;20296;-69
2024/01/01 06:15:37;;;;;;;2.37;2.20;;;;;;;;;;6370172;27;20299;-69
2024/01/01 06:18:41;;;;;;;2.17;2.17;;;;;;;;;;6388689;27;20295;-69
2024/01/01 06:21:46;;;;;;;2.20;2.20;;;;;;;;;;6389061;27;20791;-69
2024/01/01 06:24:50;;;;;;;2.57;2.47;;;;;;;;;;6388020;27;20312;-69
2024/01/01 06:27:54;;;;;;;2.03;2.03;;;;;;;;;;6388821;27;20296;-69
2024/01/01 06:31:00;;;;;;;2.23;2.17;;;;;;;;;;6387725;27;20291;-69
2024/01/01 06:34:04;;;;;;;1.93;1.93;;;;;;;;;;6387973;27;20373;-69
2024/01/01 06:37:08;;;;;;;2.70;2.47;;;;;;;;;;6388583;27;20610;-69
2024/01/01 06:40:12;;;;;;;2.23;2.13;;;;;;;;;;6387823;27;20287;-69
2024/01/01 06:43:16;;;;;;;2.30;2.20;;;;;;;;;;6388322;27;20288;-69
2024/01/01 06:46:21;;;;;;;2.13;2.07;;;;;;;;;;6387745;27;20322;-69
2024/01/01 06:49:25;;;;;;;2.17;2.07;;;;;;;;;;6387586;27;20288;-69
2024/01/01 06:52:33;;;;;;;2.13;2.10;;;;;;;;;;6388292;27;20296;-69
2024/01/01 06:55:37;;;;;;;2.47;2.40;;;;;;;;;;6387340;27;20288;-69
2024/01/01 06:58:42;;;;;;;2.30;2.27;;;;;;;;;;6387548;27;20291;-69
2024/01/01 07:01:48;;;;;;;2.17;2.17;;;;;;;;;;6388075;27;20372;-69
2024/01/01 07:04:52;;;;;;;2.20;2.10;;;;;;;;;;6387438;27;20296;-69
2024/01/01 07:07:56;;;;;;;2.33;2.30;;;;;;;;;;6388047;27;20298;-69
2024/01/01 07:11:00;;;;;;;2.07;1.97;;;;;;;;;;6387337;27;20292;-69
2024/01/01 07:14:04;;;;;;;2.13;2.03;;;;;;;;;;6386396;27;20522;-69
2024/01/01 07:17:09;;;;;;;2.10;2.10;;;;;;;;;;6387969;27;20252;-69
2024/01/01 07:20:13;;;;;;;2.23;2.03;;;;;;;;;;6393571;27;20306;-70
2024/01/01 07:23:18;;;;;;;2.37;2.20;;;;;;;;;;6413050;27;20423;-70
2024/01/01 07:26:22;;;;;;;2.13;2.03;;;;;;;;;;6412674;27;22704;-70
2024/01/01 07:29:27;;;;;;;1.70;1.70;;;;;;;;;;6394412;27;20301;-70
2024/01/01 07:32:32;;;;;;;2.00;2.00;;;;;;;;;;6360379;28;20467;-70
2024/01/01 07:35:36;;;;;;;1.90;1.80;;;;;;;;;;6380858;27;20296;-70
2024/01/01 07:38:41;;;;;;;1.87;1.87;;;;;;;;;;6359130;28;20289;-70
2024/01/01 07:41:46;;;;;;;1.83;1.73;;;;;;;;;;6352761;28;20329;-70
2024/01/01 07:44:49;;;;;;;1.80;1.73;;;;;;;;;;6366025;27;20295;-70
2024/01/01 07:47:55;;;;;;;2.50;1.80;;;;;;;;;;6362702;27;20286;-70
2024/01/01 07:51:01;;;;;;;2.10;2.00;;;;;;;;;;6377885;27;20291;-70
2024/01/01 07:54:05;;;;;;;1.93;1.93;;;;;;;;;;6365185;27;20300;-69
2024/01/01 07:57:09;;;;;;;2.00;1.90;;;;;;;;;;6386492;27;20308;-70
2024/01/01 08:00:15;;;;;;;1.90;1.90;;;;;;;;;;6385809;27;20318;-70
2024/01/01 08:03:21;;;;;;;1.80;1.80;;;;;;;;;;6386739;27;20308;-70
2024/01/01 08:06:25;;;;;;;2.63;2.07;;;;;;;;;;6385675;27;20292;-68
2024/01/01 08:09:29;;;;;;;2.80;1.90;;;;;;;;;;6385980;27;20538;-70
2024/01/01 08:12:33;;;;;;;3.33;2.13;;;;;;;;;;6408607;27;20299;-70
2024/01/01 08:15:37;;;;;;;2.07;2.07;;;;;;;;;;6411329;27;20379;-70
2024/01/01 08:18:42;;;;;;;2.10;2.10;;;;;;;;;;6392277;27;20660;-70
2024/01/01 08:21:47;;;;;;;1.90;1.90;;;;;;;;;;6411315;27;20302;-70
2024/01/01 08:24:51;;;;;;;5.80;1.77;;;;;;;;;;6411355;27;20383;-70
2024/01/01 08:27:55;;;;;;;2.17;2.00;;;;;;;;;;6409248;27;20299;-70
2024/01/01 08:30:58;;;;;;;1.80;1.80;;;;;;;;;;6385409;27;20284;-69
2024/01/01 08:34:04;;;;;;;1.77;1.77;;;;;;;;;;6385085;27;20463;-69
2024/01/01 08:37:08;;;;;;;2.10;1.93;;;;;;;;;;6386046;27;20287;-69
2024/01/01 08:40:12;;;;;;;1.77;1.77;;;;;;;;;;6385197;27;20580;-69
2024/01/01 08:43:16;;;;;;;2.00;1.90;;;;;;;;;;6385545;27;20480;-69
2024/01/01 08:46:22;;;;;;;1.83;1.83;;;;;;;;;;6385430;27;20306;-69
2024/01/01 08:49:27;;;;;;;1.90;1.90;;;;;;;;;;6385234;27;20292;-70
2024/01/01 08:52:31;;;;;;;1.77;1.77;;;;;;;;;;6363460;27;20291;-70
2024/01/01 08:55:36;;;;;;;2.20;2.20;;;;;;;;;;6366040;27;20293;-70
2024/01/01 08:58:40;;;;;;;2.20;2.10;;;;;;;;;;6384988;27;20380;-70
2024/01/01 09:01:44;;;;;;;2.00;2.00;;;;;;;;;;6385843;27;20304;-70
2024/01/01 09:04:50;;;;;;;2.57;1.80;;;;;;;;;;6384632;27;20292;-70
2024/01/01 09:07:54;;;;;;;1.70;1.70;;;;;;;;;;6385823;27;20292;-69
2024/01/01 09:10:58;;;;;;;1.70;1.70;;;;;;;;;;6394488;27;20294;-70
2024/01/01 09:14:03;;;;;;;2.53;2.43;;;;;;;;;;6410158;27;20471;-70
2024/01/01 09:17:08;;;;;;;1.90;1.90;;;;;;;;;;6410913;27;20234;-70
2024/01/01 09:20:14;;;;;;;2.30;2.10;;;;;;;;;;6410744;27;20295;-70
2024/01/01 09:23:18;;;;;;;2.13;2.03;;;;;;;;;;6411020;27;20234;-70
2024/01/01 09:26:22;;;;;;;2.00;2.00;;;;;;;;;;6410577;27;20307;-70
2024/01/01 09:29:26;;;;;;;3.00;2.23;;;;;;;;;;6376586;28;20291;-70
2024/01/01 09:32:30;;;;;;;2.33;2.23;;;;;;;;;;6384935;27;20296;-70
2024/01/01 09:35:38;;;;;;;2.30;1.93;;;;;;;;;;6384775;28;20298;-70
2024/01/01 09:38:42;;;;;;;2.03;1.93;;;;;;;;;;6384627;27;20561;-70
2024/01/01 09:41:46;;;;;;;2.40;2.23;;;;;;;;;;6385545;27;20294;-69
2024/01/01 09:44:50;;;;;;;1.90;1.90;;;;;;;;;;6384792;28;20583;-69
2024/01/01 09:47:54;;;;;;;2.00;2.00;;;;;;;;;;6385006;27;20454;-69
2024/01/01 09:51:02;;;;;;;2.20;2.17;;;;;;;;;;6384532;27;20599;-69
2024/01/01 09:54:07;;;;;;;2.10;2.10;;;;;;;;;;6380667;27;20468;-71
2024/01/01 09:57:11;;;;;;;2.20;2.10;;;;;;;;;;6384829;27;20292;-73
2024/01/01 10:00:22;;;;;;;1.90;1.90;;;;;;;;;;6384655;27;20295;-69
2024/01/01 10:03:26;;;;;;;2.50;1.80;;;;;;;;;;6384518;27;20425;-71
2024/01/01 10:06:33;;;;;;;2.47;2.40;;;;;;;;;;6387620;27;20313;-70
2024/01/01 10:09:47;;;;;;;2.20;2.20;;;;;;;;;;6388934;27;20425;-69
2024/01/01 10:12:52;;;;;;;2.10;2.00;;;;;;;;;;6414523;27;20292;-69
2024/01/01 10:15:56;;;;;;;3.23;2.00;;;;;;;;;;6414571;27;20293;-70
2024/01/01 10:19:02;;;;;;;1.93;1.77;;;;;;;;;;6414553;27;20291;-68
2024/01/01 10:22:14;;;;;;;2.43;2.10;;;;;;;;;;6415014;27;20374;-68
2024/01/01 10:25:18;;;;;;;1.97;1.97;;;;;;;;;;6414438;27;20292;-67
2024/01/01 10:28:24;;;;;;;2.33;2.23;;;;;;;;;;6408977;27;20284;-67
2024/01/01 10:31:29;;;;;;;1.97;1.97;;;;;;;;;;6388166;27;20286;-68
2024/01/01 10:34:33;;;;;;;2.00;2.00;;;;;;;;;;6388307;27;20295;-70
2024/01/01 10:37:38;;;;;;;2.13;1.90;;;;;;;;;;6389270;27;20289;-69
2024/01/01 10:40:42;;;;;;;1.93;1.87;;;;;;;;;;6388844;27;20295;-69
2024/01/01 10:43:47;;;;;;;2.00;2.00;;;;;;;;;;6369989;27;20296;-69
2024/01/01 10:46:53;;;;;;;2.00;2.00;;;;;;;;;;6388030;27;20290;-69
2024/01/01 10:50:09;;;;;;;2.37;2.20;;;;;;;;;;6387834;27;20296;-69
2024/01/01 10:53:23;;;;;;;2.27;2.20;;;;;;;;;;6383217;27;20339;-69
2024/01/01 10:56:33;;;;;;;1.57;1.57;;;;;;;;;;6386958;27;20292;-69
2024/01/01 10:59:41;;;;;;;1.73;1.70;;;;;;;;;;6387721;27;20564;-69
2024/01/01 11:02:46;;;;;;;2.17;2.07;;;;;;;;;;6388089;27;20301;-70
2024/01/01 11:05:51;;;;;;;3.70;2.00;;;;;;;;;;6387502;27;20281;-70
2024/01/01 11:08:57;;;;;;;1.93;1.90;;;;;;;;;;6387808;27;20284;-68
2024/01/01 11:12:02;;;;;;;1.90;1.90;;;;;;;;;;6406303;27;20302;-70
2024/01/01 11:15:43;;;;;;;1.83;1.77;;;;;;;;;;6413254;27;20289;-69
2024/01/01 11:18:48;;;;;;;1.90;1.80;;;;;;;;;;6412056;27;20329;-70
2024/01/01 11:21:53;;;;;;;2.00;1.90;;;;;;;;;;6413338;27;20473;-70
2024/01/01 11:25:00;;;;;;;1.80;1.80;;;;;;;;;;6413124;27;20285;-69
2024/01/01 11:28:05;;;;;;;1.80;1.80;;;;;;;;;;6409908;27;20290;-69
2024/01/01 11:31:09;;;;;;;1.70;1.70;;;;;;;;;;6386888;27;20294;-68
2024/01/01 11:34:16;;;;;;;1.80;1.80;;;;;;;;;;6386998;27;20298;-68
2024/01/01 11:37:29;;;;;;;1.83;1.80;;;;;;;;;;6387175;27;20303;-66
2024/01/01 11:40:35;;;;;;;1.87;1.87;;;;;;;;;;6386606;27;20297;-68
2024/01/01 11:43:39;;;;;;;1.97;1.87;;;;;;;;;;6386709;27;20292;-69
2024/01/01 11:46:43;;;;;;;2.30;2.23;;;;;;;;;;6386969;27;20397;-68
2024/01/01 11:49:54;;;;;;;1.70;1.70;;;;;;;;;;6384689;27;20301;-68
2024/01/01 11:56:24;;;;;;;2.00;1.90;;;;;;;;;;6385245;27;20288;-69
2024/01/01 11:59:30;;;;;;;3.00;1.77;;;;;;;;;;6386119;27;20288;-68
2024/01/01 12:02:34;;;;;;;1.90;1.90;;;;;;;;;;6386442;27;20295;-68
2024/01/01 12:05:41;;;;;;;2.20;1.93;;;;;;;;;;6386171;27;20288;-67
2024/01/01 12:08:45;;;;;;;1.93;1.83;;;;;;;;;;6386025;27;20313;-68
2024/01/01 12:11:50;;;;;;;2.70;2.60;;;;;;;;;;6402690;27;20287;-67
2024/01/01 12:14:54;;;;;;;2.20;2.10;;;;;;;;;;6411339;27;20498;-68
2024/01/01 12:17:59;;;;;;;1.90;1.90;;;;;;;;;;6412430;27;20289;-70
2024/01/01 12:21:03;;;;;;;1.93;1.93;;;;;;;;;;6411366;27;20295;-69
2024/01/01 12:24:13;;;;;;;1.80;1.80;;;;;;;;;;6411140;27;20580;-69
2024/01/01 12:27:19;;;;;;;2.27;2.07;;;;;;;;;;6411709;27;20296;-68
2024/01/01 12:30:27;;;;;;;2.10;2.10;;;;;;;;;;6388277;27;20362;-69
2024/01/01 12:33:31;;;;;;;1.83;1.83;;;;;;;;;;6385674;27;20290;-67
2024/01/01 12:36:36;;;;;;;2.00;2.00;;;;;;;;;;6385962;27;20303;-69
2024/01/01 12:39:39;;;;;;;1.90;1.80;;;;;;;;;;6385267;27;20602;-67
2024/01/01 12:42:46;;;;;;;1.80;1.80;;;;;;;;;;6367455;27;20294;-68
2024/01/01 12:45:50;;;;;;;1.87;1.73;;;;;;;;;;6385028;27;20284;-68
2024/01/01 12:48:54;;;;;;;1.83;1.83;;;;;;;;;;6385014;27;20294;-70
2024/01/01 12:51:58;;;;;;;2.07;1.97;;;;;;;;;;6382016;27;20280;-70
2024/01/01 12:55:02;;;;;;;1.80;1.80;;;;;;;;;;6385027;27;20299;-70
2024/01/01 12:58:07;;;;;;;2.17;1.90;;;;;;;;;;6385556;27;20576;-68
2024/01/01 13:01:14;;;;;;;2.20;2.10;;;;;;;;;;6385000;27;20294;-70
2024/01/01 13:04:18;;;;;;;1.90;1.90;;;;;;;;;;6385000;27;20331;-70
2024/01/01 13:07:21;;;;;;;2.40;2.30;;;;;;;;;;6385636;27;20292;-70
2024/01/01 13:10:25;;;;;;;2.07;2.07;;;;;;;;;;6389416;27;20279;-70
2024/01/01 13:13:32;;;;;;;1.90;1.90;;;;;;;;;;6410121;27;20293;-70
2024/01/01 13:16:36;;;;;;;2.30;2.20;;;;;;;;;;6411241;27;20488;-70
2024/01/01 13:19:40;;;;;;;2.17;2.07;;;;;;;;;;6410248;27;20287;-70
2024/01/01 13:22:44;;;;;;;1.97;1.90;;;;;;;;;;6411421;27;20285;-69
2024/01/01 13:25:48;;;;;;;2.50;2.30;;;;;;;;;;6391629;27;20456;-71
2024/01/01 13:28:56;;;;;;;3.10;2.27;;;;;;;;;;6400216;27;20582;-69
2024/01/01 13:32:02;;;;;;;2.23;2.13;;;;;;;;;;6384743;27;20288;-70
2024/01/01 13:35:07;;;;;;;2.30;2.20;;;;;;;;;;6384870;27;20300;-70
2024/01/01 13:38:11;;;;;;;2.43;2.37;;;;;;;;;;6385509;27;20268;-69
2024/01/01 13:41:15;;;;;;;3.70;2.20;;;;;;;;;;6387661;27;20288;-69
2024/01/01 13:44:20;;;;;;;2.20;2.10;;;;;;;;;;6389680;27;20293;-70
2024/01/01 13:47:24;;;;;;;2.60;2.40;;;;;;;;;;6390438;27;20293;-69
2024/01/01 13:50:29;;;;;;;2.27;2.27;;;;;;;;;;6389833;27;20297;-69
2024/01/01 13:53:33;;;;;;;2.77;2.43;;;;;;;;;;6386016;27;20284;-69
2024/01/01 13:56:37;;;;;;;3.10;2.90;;;;;;;;;;6390189;27;20289;-69
2024/01/01 13:59:42;;;;;;;3.33;3.23;;;;;;;;;;6389131;27;20292;-69
2024/01/01 14:02:46;;;;;;;4.10;3.30;;;;;;;;;;6390030;27;20311;-69
2024/01/01 14:05:50;;;;;;;3.30;2.90;;;;;;;;;;6389313;27;20298;-69
2024/01/01 14:08:54;;;;;;;2.80;2.63;;;;;;;;;;6388979;27;20288;-69
2024/01/01 14:11:58;;;;;;;2.67;2.53;;;;;;;;;;6406952;27;20292;-69
2024/01/01 14:15:04;;;;;;;2.50;2.40;;;;;;;;;;6414490;27;20292;-69
2024/01/01 14:18:09;;;;;;;2.93;2.60;;;;;;;;;;6415246;27;20323;-69
2024/01/01 14:21:14;;;;;;;2.70;2.30;;;;;;;;;;6414536;27;20291;-69
2024/01/01 14:24:19;;;;;;;2.87;2.80;;;;;;;;;;6414804;27;20605;-71
2024/01/01 14:27:23;;;;;;;2.37;2.37;;;;;;;;;;6415267;27;20296;-69
2024/01/01 14:30:29;;;;;;;3.43;2.43;;;;;;;;;;6390471;27;20436;-69
2024/01/01 14:33:33;;;;;;;3.00;2.87;;;;;;;;;;6386408;27;20296;-70
2024/01/01 14:36:37;;;;;;;2.57;2.53;;;;;;;;;;6389709;27;20290;-69
2024/01/01 14:39:42;;;;;;;2.33;2.27;;;;;;;;;;6388744;27;20312;-69
2024/01/01 14:42:46;;;;;;;2.67;2.57;;;;;;;;;;6388751;27;20291;-69
2024/01/01 14:45:51;;;;;;;2.67;2.57;;;;;;;;;;6388421;27;20292;-68
2024/01/01 14:48:55;;;;;;;2.67;2.57;;;;;;;;;;6387977;27;20307;-71
2024/01/01 14:52:00;;;;;;;2.87;2.67;;;;;;;;;;6385199;27;20386;-69
2024/01/01 14:55:04;;;;;;;2.80;2.67;;;;;;;;;;6388000;27;20474;-67
2024/01/01 14:58:08;;;;;;;2.70;2.60;;;;;;;;;;6388274;27;20316;-68
2024/01/01 15:01:20;;;;;;;2.90;2.80;;;;;;;;;;6388000;27;20292;-69
2024/01/01 15:04:24;;;;;;;2.90;2.70;;;;;;;;;;6387914;27;20293;-68
2024/01/01 15:07:28;;;;;;;2.80;2.80;;;;;;;;;;6388383;27;20295;-70
2024/01/01 15:10:32;;;;;;;2.63;2.53;;;;;;;;;;6392741;27;20293;-67
2024/01/01 15:13:35;;;;;;;5.80;3.30;;;;;;;;;;6413395;27;20291;-68
2024/01/01 15:16:43;;;;;;;4.63;2.30;;;;;;;;;;6413897;27;20290;-68
2024/01/01 15:19:47;;;;;;;3.63;3.00;;;;;;;;;;6404204;27;20296;-68
2024/01/01 15:22:51;;;;;;;2.40;2.30;;;;;;;;;;6413196;27;20304;-68
2024/01/01 15:25:55;;;;;;;2.70;2.60;;;;;;;;;;6393733;27;20564;-67
2024/01/01 15:28:59;;;;;;;3.23;2.30;;;;;;;;;;6401512;27;20296;-67
2024/01/01 15:32:07;;;;;;;2.63;2.63;;;;;;;;;;6386063;27;20277;-68
2024/01/01 15:35:11;;;;;;;2.80;2.60;;;;;;;;;;6386686;27;20346;-68
2024/01/01 15:38:15;;;;;;;2.10;2.00;;;;;;;;;;6387368;27;20233;-67
2024/01/01 15:41:19;;;;;;;2.60;2.50;;;;;;;;;;6386765;27;20319;-68
2024/01/01 15:44:23;;;;;;;2.00;1.90;;;;;;;;;;6385037;27;20464;-68
2024/01/01 15:47:29;;;;;;;2.00;2.00;;;;;;;;;;6387205;27;20308;-69
2024/01/01 15:50:33;;;;;;;2.07;2.07;;;;;;;;;;6386640;27;20402;-67
2024/01/01 15:53:37;;;;;;;1.90;1.90;;;;;;;;;;6382710;27;20285;-68
2024/01/01 15:56:41;;;;;;;2.00;1.83;;;;;;;;;;6386812;27;20297;-68
2024/01/01 15:59:45;;;;;;;1.80;1.70;;;;;;;;;;6386276;27;20315;-70
2024/01/01 16:02:50;;;;;;;1.70;1.70;;;;;;;;;;6386361;27;20289;-69
2024/01/01 16:05:54;;;;;;;1.80;1.73;;;;;;;;;;6385956;27;20287;-70
2024/01/01 16:08:59;;;;;;;2.90;1.90;;;;;;;;;;6385989;27;20310;-69
2024/01/01 16:12:03;;;;;;;1.70;1.60;;;;;;;;;;6404367;27;20284;-69
2024/01/01 16:15:07;;;;;;;1.80;1.80;;;;;;;;;;6411645;27;20303;-71
2024/01/01 16:18:13;;;;;;;1.60;1.60;;;;;;;;;;6412146;27;20287;-69
2024/01/01 16:21:17;;;;;;;2.17;2.07;;;;;;;;;;6411508;27;20296;-69
2024/01/01 16:24:22;;;;;;;2.03;1.90;;;;;;;;;;6411481;27;20320;-69
2024/01/01 16:27:26;;;;;;;1.90;1.90;;;;;;;;;;6412136;27;20422;-69
2024/01/01 16:30:30;;;;;;;2.00;2.00;;;;;;;;;;6384025;27;20292;-68
2024/01/01 16:33:36;;;;;;;1.80;1.70;;;;;;;;;;6367104;27;20623;-69
2024/01/01 16:36:40;;;;;;;2.03;1.83;;;;;;;;;;6386248;27;20369;-70
2024/01/01 16:39:49;;;;;;;3.73;1.90;;;;;;;;;;6385295;27;20300;-68
2024/01/01 16:42:53;;;;;;;1.80;1.80;;;;;;;;;;6385697;27;20287;-69
2024/01/01 16:45:58;;;;;;;1.97;1.97;;;;;;;;;;6385154;27;20485;-69
2024/01/01 16:49:03;;;;;;;2.10;1.77;;;;;;;;;;6385846;27;20295;-70
2024/01/01 16:52:08;;;;;;;1.80;1.80;;;;;;;;;;6382520;27;20284;-71
2024/01/01 16:55:12;;;;;;;2.00;1.90;;;;;;;;;;6384995;27;20290;-70
2024/01/01 16:58:16;;;;;;;2.37;2.27;;;;;;;;;;6385687;27;20296;-70
2024/01/01 17:01:23;;;;;;;3.23;2.10;;;;;;;;;;6385115;27;20314;-70
2024/01/01 17:04:28;;;;;;;2.17;2.07;;;;;;;;;;6384986;27;20304;-70
2024/01/01 17:07:32;;;;;;;2.07;1.97;;;;;;;;;;6385696;27;20444;-71
2024/01/01 17:10:36;;;;;;;2.10;2.00;;;;;;;;;;6390916;27;20296;-70
2024/01/01 17:13:41;;;;;;;1.73;1.73;;;;;;;;;;6410759;27;20350;-69
2024/01/01 17:16:47;;;;;;;1.90;1.90;;;;;;;;;;6415424;27;20299;-69
2024/01/01 17:19:53;;;;;;;2.10;2.10;;;;;;;;;;6387955;27;20312;-69
2024/01/01 17:22:56;;;;;;;2.30;2.10;;;;;;;;;;6416710;27;20292;-69
2024/01/01 17:26:08;;;;;;;2.20;2.20;;;;;;;;;;6414948;27;20468;-69
2024/01/01 17:29:12;;;;;;;2.07;2.07;;;;;;;;;;6397018;27;20364;-69
2024/01/01 17:32:17;;;;;;;2.27;2.20;;;;;;;;;;6361028;28;20280;-71
2024/01/01 17:35:22;;;;;;;2.20;2.20;;;;;;;;;;6364228;27;20289;-68
2024/01/01 17:38:26;;;;;;;2.73;2.40;;;;;;;;;;6363975;28;20284;-70
2024/01/01 17:41:32;;;;;;;2.23;2.13;;;;;;;;;;6364336;27;20289;-70
2024/01/01 17:44:36;;;;;;;2.30;2.20;;;;;;;;;;6364112;28;20288;-71
2024/01/01 17:47:40;;;;;;;2.00;2.00;;;;;;;;;;6364113;27;20300;-71
2024/01/01 17:50:45;;;;;;;2.33;2.23;;;;;;;;;;6364039;27;20294;-71
2024/01/01 17:53:49;;;;;;;1.80;1.80;;;;;;;;;;6385237;27;20283;-71
2024/01/01 17:56:53;;;;;;;1.90;1.90;;;;;;;;;;6389718;27;20283;-70
2024/01/01 17:59:57;;;;;;;2.33;2.20;;;;;;;;;;6389188;27;20287;-70
2024/01/01 18:03:01;;;;;;;2.10;2.00;;;;;;;;;;6389706;27;20413;-69
2024/01/01 18:06:06;;;;;;;2.47;2.10;;;;;;;;;;6389123;27;20292;-69
2024/01/01 18:09:11;;;;;;;2.27;2.17;;;;;;;;;;6389058;27;20284;-70
2024/01/01 18:12:16;;;;;;;2.20;2.10;;;;;;;;;;6402402;27;20540;-68
2024/01/01 18:15:20;;;;;;;2.17;2.10;;;;;;;;;;6414614;27;20296;-70
2024/01/01 18:18:23;;;;;;;2.33;2.23;;;;;;;;;;6415180;27;20295;-70
2024/01/01 18:21:29;;;;;;;2.43;2.23;;;;;;;;;;6409345;27;20470;-69
2024/01/01 18:24:33;;;;;;;2.40;2.20;;;;;;;;;;6414493;27;20577;-68
2024/01/01 18:27:37;;;;;;;2.10;2.00;;;;;;;;;;6414344;27;20306;-69
2024/01/01 18:30:40;;;;;;;2.77;2.10;;;;;;;;;;6388217;27;20296;-68